Time;durP1;ratioP1;P1;durP2;ratioP2;P2;SDS_P1;SDS_P2;PMS_P1;PMS_P2;Temp;Humidity;BMP_temperature;BMP_pressure;BME280_temperature;BME280_humidity;BME280_pressure;Samples;Min_cycle;Max_cycle;Signal;HPM_P1;HPM_P2
2023/04/26 00:00:48;;;;;;;6.22;2.35;;;8.40;99.90;;;;;;4989967;28;20411;-79
2023/04/26 00:03:15;;;;;;;5.10;2.53;;;8.30;99.90;;;;;;4989001;28;20046;-78
2023/04/26 00:05:42;;;;;;;4.53;2.58;;;8.20;99.90;;;;;;4992119;28;20105;-77
2023/04/26 00:08:09;;;;;;;2.53;2.30;;;8.20;99.90;;;;;;4992709;28;21025;-78
2023/04/26 00:10:36;;;;;;;3.10;2.45;;;8.20;99.90;;;;;;4992845;28;20050;-78
2023/04/26 00:13:02;;;;;;;3.95;2.42;;;8.10;99.90;;;;;;4992167;28;20108;-77
2023/04/26 00:15:29;;;;;;;3.25;2.47;;;8.10;99.90;;;;;;4992626;28;20082;-78
2023/04/26 00:17:56;;;;;;;4.13;2.35;;;8.10;99.90;;;;;;4992264;28;20053;-78
2023/04/26 00:20:23;;;;;;;3.55;3.15;;;8.10;99.90;;;;;;4993052;28;20533;-79
2023/04/26 00:22:50;;;;;;;2.75;2.00;;;8.10;99.90;;;;;;4990738;28;20050;-78
2023/04/26 00:25:17;;;;;;;4.25;2.60;;;8.00;99.90;;;;;;4990886;28;20046;-78
2023/04/26 00:27:43;;;;;;;3.38;3.00;;;8.00;99.90;;;;;;4991811;28;20134;-78
2023/04/26 00:30:11;;;;;;;3.10;2.15;;;8.00;99.90;;;;;;4992218;28;20514;-78
2023/04/26 00:32:38;;;;;;;5.95;2.10;;;7.90;99.90;;;;;;4990164;28;20133;-80
2023/04/26 00:35:05;;;;;;;3.17;2.30;;;7.80;99.90;;;;;;4989792;28;20051;-78
2023/04/26 00:37:31;;;;;;;2.22;1.90;;;7.80;99.90;;;;;;4996059;28;20081;-79
2023/04/26 00:39:58;;;;;;;3.17;2.20;;;7.80;99.90;;;;;;4994532;28;20046;-77
2023/04/26 00:42:26;;;;;;;2.25;1.85;;;7.80;99.90;;;;;;4995832;28;20053;-77
2023/04/26 00:44:56;;;;;;;2.22;1.95;;;7.70;99.90;;;;;;4976287;28;20057;-79
2023/04/26 00:47:29;;;;;;;3.33;1.92;;;7.70;99.90;;;;;;4977577;28;20058;-78
2023/04/26 00:49:56;;;;;;;3.47;2.50;;;7.70;99.90;;;;;;4992755;28;20053;-78
2023/04/26 00:52:23;;;;;;;4.13;2.05;;;7.70;99.90;;;;;;4995264;28;20573;-78
2023/04/26 00:54:50;;;;;;;3.08;2.47;;;7.70;99.90;;;;;;4995475;28;20081;-78
2023/04/26 00:57:17;;;;;;;2.55;2.10;;;7.70;99.90;;;;;;4993473;28;20130;-79
2023/04/26 00:59:44;;;;;;;2.72;2.22;;;7.60;99.90;;;;;;4995603;28;20535;-77
2023/04/26 01:02:10;;;;;;;5.80;2.25;;;7.50;99.90;;;;;;4995305;28;20061;-77
2023/04/26 01:04:38;;;;;;;3.58;1.88;;;7.50;99.90;;;;;;4995866;28;20050;-78
2023/04/26 01:07:05;;;;;;;4.53;2.28;;;7.40;99.90;;;;;;4995682;28;20101;-77
2023/04/26 01:09:32;;;;;;;7.00;2.28;;;7.40;99.90;;;;;;4995790;28;20429;-78
2023/04/26 01:12:00;;;;;;;3.00;2.22;;;7.40;99.90;;;;;;4995693;28;20125;-79
2023/04/26 01:14:27;;;;;;;3.95;2.10;;;7.40;99.90;;;;;;4993045;28;20050;-78
2023/04/26 01:16:56;;;;;;;5.13;2.50;;;7.40;99.90;;;;;;4995611;28;20050;-77
2023/04/26 01:19:22;;;;;;;2.80;2.20;;;7.40;99.90;;;;;;4995392;28;20046;-78
2023/04/26 01:21:49;;;;;;;3.40;2.30;;;7.30;99.90;;;;;;4995102;28;20046;-79
2023/04/26 01:24:16;;;;;;;3.15;2.03;;;7.30;99.90;;;;;;4994954;28;20129;-78
2023/04/26 01:26:45;;;;;;;3.22;2.28;;;7.30;99.90;;;;;;4977150;28;20042;-78
2023/04/26 01:29:13;;;;;;;3.17;2.15;;;7.30;99.90;;;;;;4995376;28;20129;-79
2023/04/26 01:31:40;;;;;;;6.22;1.85;;;7.30;99.90;;;;;;4994491;28;20105;-79
2023/04/26 01:34:07;;;;;;;2.22;2.03;;;7.20;99.90;;;;;;4994777;28;20490;-77
2023/04/26 01:36:34;;;;;;;3.30;2.20;;;7.20;99.90;;;;;;4995106;28;20566;-79
2023/04/26 01:39:01;;;;;;;2.75;2.00;;;7.20;99.90;;;;;;4996229;28;20078;-77
2023/04/26 01:41:27;;;;;;;2.70;2.22;;;7.20;99.90;;;;;;4994647;28;20048;-79
2023/04/26 01:43:54;;;;;;;3.05;2.20;;;7.10;99.90;;;;;;4995421;28;20570;-81
2023/04/26 01:46:21;;;;;;;2.85;1.88;;;7.10;99.90;;;;;;4995148;28;20545;-79
2023/04/26 01:48:48;;;;;;;7.40;2.50;;;7.10;99.90;;;;;;4995921;28;20105;-78
2023/04/26 01:51:15;;;;;;;3.80;1.70;;;7.10;99.90;;;;;;4995186;28;20590;-77
2023/04/26 01:53:42;;;;;;;6.97;2.00;;;7.00;99.90;;;;;;4994910;28;20108;-79
2023/04/26 01:56:09;;;;;;;4.55;2.05;;;7.00;99.90;;;;;;4996081;28;20042;-78
2023/04/26 01:58:35;;;;;;;2.10;1.90;;;7.00;99.90;;;;;;4996774;28;20501;-77
2023/04/26 02:01:07;;;;;;;2.30;1.80;;;7.00;99.90;;;;;;4980292;28;20502;-77
2023/04/26 02:03:35;;;;;;;2.53;2.10;;;6.90;99.90;;;;;;4979767;28;20049;-77
2023/04/26 02:06:02;;;;;;;2.88;1.75;;;6.90;99.90;;;;;;4978560;28;20422;-77
2023/04/26 02:08:29;;;;;;;1.83;1.63;;;6.90;99.90;;;;;;4977105;28;20133;-77
2023/04/26 02:10:56;;;;;;;3.15;2.20;;;6.90;99.90;;;;;;4993389;28;20056;-77
2023/04/26 02:13:23;;;;;;;5.03;2.50;;;6.90;99.90;;;;;;4994491;28;20129;-77
2023/04/26 02:15:50;;;;;;;4.82;2.00;;;6.80;99.90;;;;;;4992865;28;20078;-78
2023/04/26 02:18:20;;;;;;;3.60;1.95;;;6.80;99.90;;;;;;4987076;28;20038;-76
2023/04/26 02:20:47;;;;;;;;;;;6.80;99.90;;;;;;4995280;28;20073;-77
2023/04/26 02:23:14;;;;;;;3.05;1.80;;;6.80;99.90;;;;;;4994204;28;20008;-79
2023/04/26 02:25:46;;;;;;;2.08;1.58;;;6.70;99.90;;;;;;4994506;28;20066;-77
2023/04/26 02:28:14;;;;;;;2.45;1.90;;;6.70;99.90;;;;;;4992615;28;20054;-77
2023/04/26 02:30:42;;;;;;;2.00;1.80;;;6.70;99.90;;;;;;4994220;28;20104;-77
2023/04/26 02:33:09;;;;;;;6.00;2.15;;;6.60;99.90;;;;;;4994263;28;20073;-78
2023/04/26 02:35:36;;;;;;;1.95;1.67;;;6.60;99.90;;;;;;4994734;28;20052;-78
2023/04/26 02:38:03;;;;;;;2.33;1.80;;;6.60;99.90;;;;;;4999096;28;20042;-79
2023/04/26 02:40:30;;;;;;;2.42;2.00;;;6.50;99.90;;;;;;4995609;28;20142;-80
2023/04/26 02:42:58;;;;;;;4.68;2.20;;;6.50;99.90;;;;;;4995241;28;20478;-80
2023/04/26 02:45:25;;;;;;;5.32;2.28;;;6.50;99.90;;;;;;4995368;28;20050;-80
2023/04/26 02:47:52;;;;;;;4.05;1.98;;;6.50;99.90;;;;;;4994695;28;20082;-78
2023/04/26 02:50:18;;;;;;;4.25;2.50;;;6.50;99.90;;;;;;4994461;28;20054;-78
2023/04/26 02:52:45;;;;;;;2.60;2.17;;;6.50;99.90;;;;;;4992715;28;20134;-78
2023/04/26 02:55:12;;;;;;;2.95;2.10;;;6.50;99.90;;;;;;4994010;28;20057;-77
2023/04/26 02:57:38;;;;;;;2.35;1.83;;;6.50;99.90;;;;;;4991193;28;20042;-76
2023/04/26 03:00:06;;;;;;;2.00;1.80;;;6.50;99.90;;;;;;4993593;28;20042;-79
2023/04/26 03:02:33;;;;;;;2.55;2.20;;;6.50;99.90;;;;;;4973887;28;20050;-78
2023/04/26 03:05:01;;;;;;;4.65;2.20;;;6.50;99.90;;;;;;4993898;28;20046;-77
2023/04/26 03:07:27;;;;;;;4.47;2.10;;;6.60;99.90;;;;;;4993565;28;20110;-79
2023/04/26 03:09:54;;;;;;;2.92;2.00;;;6.50;99.90;;;;;;4993368;28;20137;-78
2023/04/26 03:12:21;;;;;;;3.72;1.80;;;6.50;99.90;;;;;;4993679;28;20056;-77
2023/04/26 03:14:47;;;;;;;2.55;1.70;;;6.50;99.90;;;;;;4993303;28;20150;-78
2023/04/26 03:17:14;;;;;;;3.22;2.20;;;6.50;99.90;;;;;;4993382;28;20084;-77
2023/04/26 03:19:41;;;;;;;5.05;1.75;;;6.50;99.90;;;;;;4993463;28;20556;-76
2023/04/26 03:22:07;;;;;;;3.88;1.85;;;6.50;99.90;;;;;;4975771;28;20049;-78
2023/04/26 03:24:34;;;;;;;3.45;1.95;;;6.50;99.90;;;;;;4993455;28;20089;-78
2023/04/26 03:27:01;;;;;;;5.20;2.20;;;6.50;99.90;;;;;;4993270;28;20058;-80
2023/04/26 03:29:27;;;;;;;3.83;1.88;;;6.40;99.90;;;;;;4990958;28;20044;-78
2023/04/26 03:31:54;;;;;;;3.58;2.50;;;6.40;99.90;;;;;;4992843;28;20149;-79
2023/04/26 03:34:21;;;;;;;4.30;2.08;;;6.40;99.90;;;;;;4988683;28;20445;-79
2023/04/26 03:36:47;;;;;;;3.13;2.38;;;6.40;99.90;;;;;;4987988;28;20582;-79
2023/04/26 03:39:14;;;;;;;2.67;2.47;;;6.40;99.90;;;;;;4992435;28;20430;-78
2023/04/26 03:41:41;;;;;;;2.53;2.05;;;6.40;99.90;;;;;;4992827;28;20050;-78
2023/04/26 03:44:08;;;;;;;2.20;1.98;;;6.40;99.90;;;;;;4992883;28;20073;-78
2023/04/26 03:46:35;;;;;;;2.55;2.00;;;6.30;99.90;;;;;;4992993;28;20565;-79
2023/04/26 03:49:02;;;;;;;2.55;2.35;;;6.30;99.90;;;;;;4992394;28;20112;-77
2023/04/26 03:51:28;;;;;;;2.80;2.10;;;6.30;99.90;;;;;;4992828;28;20056;-77
2023/04/26 03:53:57;;;;;;;4.32;2.20;;;6.30;99.90;;;;;;4993817;28;20122;-77
2023/04/26 03:56:23;;;;;;;3.03;2.00;;;6.20;99.90;;;;;;4992753;28;20054;-79
2023/04/26 03:58:50;;;;;;;5.70;2.15;;;6.20;99.90;;;;;;4993958;28;20133;-78
2023/04/26 04:01:19;;;;;;;3.08;2.70;;;6.20;99.90;;;;;;4993408;28;20617;-78
2023/04/26 04:03:45;;;;;;;4.00;2.53;;;6.20;99.90;;;;;;4992847;28;20078;-77
2023/04/26 04:06:13;;;;;;;2.47;2.17;;;6.10;99.90;;;;;;4974285;28;20110;-78
2023/04/26 04:08:39;;;;;;;3.05;2.75;;;6.10;99.90;;;;;;4992315;28;20133;-77
2023/04/26 04:11:06;;;;;;;3.63;2.50;;;6.10;99.90;;;;;;4994886;28;20403;-78
2023/04/26 04:13:33;;;;;;;2.95;2.28;;;6.10;99.90;;;;;;4996950;28;20050;-78
2023/04/26 04:16:00;;;;;;;3.70;2.53;;;6.00;99.90;;;;;;4997454;28;20139;-76
2023/04/26 04:18:27;;;;;;;3.30;2.42;;;6.00;99.90;;;;;;4995616;28;20561;-78
2023/04/26 04:20:53;;;;;;;4.50;2.90;;;6.00;99.90;;;;;;4993647;28;20569;-78
2023/04/26 04:23:20;;;;;;;6.75;3.70;;;6.00;99.90;;;;;;4996068;28;20074;-77
2023/04/26 04:25:48;;;;;;;10.48;6.28;;;5.90;99.90;;;;;;4996339;28;20149;-78
2023/04/26 04:28:14;;;;;;;5.15;4.10;;;5.90;99.90;;;;;;4995828;28;20076;-78
2023/04/26 04:30:43;;;;;;;7.20;3.53;;;5.90;99.90;;;;;;4996258;28;20082;-79
2023/04/26 04:33:09;;;;;;;5.07;3.85;;;5.90;99.90;;;;;;4993516;28;20510;-78
2023/04/26 04:35:36;;;;;;;6.78;4.03;;;5.90;99.90;;;;;;4995647;28;20093;-79
2023/04/26 04:38:03;;;;;;;3.50;2.40;;;5.90;99.90;;;;;;4995274;28;20137;-79
2023/04/26 04:40:30;;;;;;;4.72;2.42;;;5.80;99.90;;;;;;4995296;28;20074;-79
2023/04/26 04:42:57;;;;;;;8.10;2.65;;;5.90;99.90;;;;;;4995515;28;20475;-76
2023/04/26 04:45:23;;;;;;;3.97;2.75;;;5.80;99.90;;;;;;4995791;28;20066;-78
2023/04/26 04:47:52;;;;;;;4.57;2.67;;;5.80;99.90;;;;;;4975729;28;20069;-79
2023/04/26 04:50:20;;;;;;;6.03;3.13;;;5.80;99.90;;;;;;4995025;28;20038;-77
2023/04/26 04:52:47;;;;;;;3.63;2.88;;;5.80;99.90;;;;;;4995999;28;20046;-78
2023/04/26 04:55:13;;;;;;;4.00;3.15;;;5.90;99.90;;;;;;4995971;28;20043;-77
2023/04/26 04:57:41;;;;;;;5.45;3.72;;;5.90;99.90;;;;;;4995545;28;20109;-79
2023/04/26 05:00:09;;;;;;;4.75;2.90;;;6.00;99.90;;;;;;4977672;28;20517;-78
2023/04/26 05:02:36;;;;;;;3.33;2.85;;;6.10;99.90;;;;;;4997858;28;20517;-79
2023/04/26 05:05:04;;;;;;;4.25;3.20;;;6.10;99.90;;;;;;4994691;28;20130;-79
2023/04/26 05:07:31;;;;;;;6.22;3.22;;;6.10;99.90;;;;;;4995796;28;20473;-78
2023/04/26 05:09:58;;;;;;;4.70;3.35;;;6.10;99.90;;;;;;4994347;28;20129;-78
2023/04/26 05:12:25;;;;;;;2.90;2.70;;;6.20;99.90;;;;;;4978124;28;20050;-78
2023/04/26 05:14:52;;;;;;;4.35;2.58;;;6.30;99.90;;;;;;4996793;28;20093;-77
2023/04/26 05:17:19;;;;;;;9.55;2.45;;;6.30;99.90;;;;;;4994854;28;20042;-78
2023/04/26 05:19:46;;;;;;;4.53;2.95;;;6.40;99.90;;;;;;4990402;28;20097;-77
2023/04/26 05:22:17;;;;;;;9.30;4.85;;;6.50;99.90;;;;;;4993784;28;20078;-78
2023/04/26 05:24:46;;;;;;;5.15;3.17;;;6.50;99.90;;;;;;4990438;28;20121;-77
2023/04/26 05:27:13;;;;;;;6.60;3.38;;;6.60;99.90;;;;;;4990105;28;20047;-77
2023/04/26 05:29:40;;;;;;;5.20;3.20;;;6.60;99.90;;;;;;4994729;28;20137;-79
2023/04/26 05:32:07;;;;;;;3.83;3.17;;;6.70;99.90;;;;;;4994864;28;20050;-77
2023/04/26 05:34:35;;;;;;;5.78;3.22;;;6.80;99.90;;;;;;4994828;28;20081;-78
2023/04/26 05:37:02;;;;;;;4.10;3.10;;;6.80;99.90;;;;;;4994401;28;20046;-78
2023/04/26 05:39:29;;;;;;;3.55;2.70;;;6.90;99.90;;;;;;4994388;28;20049;-79
2023/04/26 05:41:56;;;;;;;5.03;3.00;;;7.00;99.90;;;;;;4994749;28;20418;-78
2023/04/26 05:44:23;;;;;;;5.13;2.75;;;7.10;99.90;;;;;;4976198;28;20046;-79
2023/04/26 05:46:50;;;;;;;6.38;3.63;;;7.10;99.90;;;;;;4994992;28;20561;-80
2023/04/26 05:49:17;;;;;;;5.93;3.40;;;7.20;99.90;;;;;;4994732;28;20056;-78
2023/04/26 05:51:43;;;;;;;4.07;3.25;;;7.20;99.90;;;;;;4995047;28;20124;-76
2023/04/26 05:54:10;;;;;;;6.43;3.35;;;7.30;99.90;;;;;;4994876;28;20074;-79
2023/04/26 05:56:37;;;;;;;4.75;3.40;;;7.40;99.90;;;;;;4995046;28;20133;-76
2023/04/26 05:59:03;;;;;;;7.20;3.85;;;7.40;99.90;;;;;;4994411;28;20051;-78
2023/04/26 06:01:30;;;;;;;7.43;3.97;;;7.50;99.90;;;;;;4996309;28;20042;-80
2023/04/26 06:03:57;;;;;;;5.07;3.83;;;7.50;99.90;;;;;;4979040;28;20049;-78
2023/04/26 06:06:27;;;;;;;5.07;3.80;;;7.60;99.90;;;;;;4995842;28;20090;-80
2023/04/26 06:08:54;;;;;;;7.55;3.08;;;7.70;99.90;;;;;;4996607;28;20297;-78
2023/04/26 06:11:21;;;;;;;5.32;3.30;;;7.80;99.90;;;;;;4981359;28;20421;-79
2023/04/26 06:13:48;;;;;;;6.05;3.63;;;7.90;99.90;;;;;;4999213;28;20092;-79
2023/04/26 06:16:15;;;;;;;5.43;3.90;;;8.00;99.90;;;;;;4979857;28;20047;-78
2023/04/26 06:18:42;;;;;;;9.38;5.53;;;8.10;99.90;;;;;;5001158;28;20066;-78
2023/04/26 06:21:09;;;;;;;9.80;7.95;;;8.20;99.90;;;;;;5000120;28;20053;-77
2023/04/26 06:23:36;;;;;;;13.60;8.90;;;8.30;99.90;;;;;;4997368;28;20125;-78
2023/04/26 06:26:02;;;;;;;12.65;8.30;;;8.30;99.90;;;;;;5000190;28;20053;-79
2023/04/26 06:28:29;;;;;;;10.82;7.88;;;8.40;99.90;;;;;;4996737;28;20421;-79
2023/04/26 06:30:56;;;;;;;14.32;8.88;;;8.50;99.90;;;;;;4999437;28;20050;-78
2023/04/26 06:33:23;;;;;;;12.23;7.80;;;8.50;99.90;;;;;;4997173;28;20129;-79
2023/04/26 06:35:51;;;;;;;12.32;8.38;;;8.60;99.90;;;;;;4976159;28;20110;-78
2023/04/26 06:38:17;;;;;;;10.05;7.70;;;8.70;99.90;;;;;;4996915;28;20410;-79
2023/04/26 06:40:44;;;;;;;8.50;6.97;;;8.80;99.90;;;;;;4997248;28;20101;-79
2023/04/26 06:43:11;;;;;;;10.73;7.45;;;8.80;99.90;;;;;;4997615;28;20480;-79
2023/04/26 06:45:37;;;;;;;11.20;7.88;;;8.90;99.90;;;;;;4998190;28;20051;-77
2023/04/26 06:48:07;;;;;;;10.82;7.63;;;8.90;99.90;;;;;;4995990;28;20039;-79
2023/04/26 06:50:38;;;;;;;11.70;7.30;;;9.00;99.90;;;;;;4993957;28;20065;-78
2023/04/26 06:53:04;;;;;;;7.85;6.22;;;9.10;99.90;;;;;;4994129;28;20738;-80
2023/04/26 06:55:31;;;;;;;9.90;7.00;;;9.20;99.90;;;;;;4999107;28;20069;-79
2023/04/26 06:57:59;;;;;;;11.52;7.32;;;9.30;99.90;;;;;;4999772;28;20073;-80
2023/04/26 07:00:26;;;;;;;8.65;6.97;;;9.40;99.90;;;;;;5001873;28;20050;-78
2023/04/26 07:02:53;;;;;;;12.32;7.50;;;9.50;99.90;;;;;;4977931;28;20050;-80
2023/04/26 07:05:20;;;;;;;10.07;6.68;;;9.50;99.90;;;;;;4997658;28;20046;-77
2023/04/26 07:07:48;;;;;;;10.05;6.88;;;9.70;99.90;;;;;;4997268;28;20577;-79
2023/04/26 07:10:16;;;;;;;10.27;7.25;;;9.80;99.90;;;;;;4984706;28;20138;-77
2023/04/26 07:12:43;;;;;;;7.70;5.90;;;9.90;99.90;;;;;;5002228;28;20052;-78
2023/04/26 07:15:10;;;;;;;7.88;6.13;;;10.00;99.90;;;;;;5002670;28;20046;-79
2023/04/26 07:17:36;;;;;;;7.22;5.70;;;9.90;99.90;;;;;;4998602;28;20073;-77
2023/04/26 07:20:04;;;;;;;8.95;7.50;;;9.80;99.90;;;;;;4984896;28;20130;-78
2023/04/26 07:22:31;;;;;;;7.97;6.50;;;9.80;99.90;;;;;;4996929;28;20046;-79
2023/04/26 07:24:58;;;;;;;7.97;5.90;;;9.90;99.90;;;;;;4980332;28;20466;-79
2023/04/26 07:27:25;;;;;;;7.35;6.10;;;9.90;99.90;;;;;;4981112;28;20081;-79
2023/04/26 07:29:57;;;;;;;27.00;23.15;;;10.00;99.90;;;;;;4994479;28;20414;-79
2023/04/26 07:32:23;;;;;;;11.75;9.65;;;10.00;99.90;;;;;;4980042;28;20145;-79
2023/04/26 07:34:50;;;;;;;11.48;8.55;;;10.00;99.90;;;;;;4995080;28;20046;-78
2023/04/26 07:37:17;;;;;;;8.10;6.60;;;10.00;99.90;;;;;;4979001;28;20138;-77
2023/04/26 07:39:44;;;;;;;12.43;7.68;;;10.00;99.90;;;;;;4996720;28;20097;-78
2023/04/26 07:42:11;;;;;;;9.40;7.60;;;10.10;99.90;;;;;;4993364;28;20102;-81
2023/04/26 07:44:37;;;;;;;9.38;7.13;;;10.10;99.90;;;;;;4997477;28;20069;-78
2023/04/26 07:47:04;;;;;;;8.57;6.45;;;10.10;99.90;;;;;;5000066;28;20073;-80
2023/04/26 07:49:31;;;;;;;8.93;7.30;;;10.20;99.90;;;;;;4993316;28;20058;-79
2023/04/26 07:52:00;;;;;;;9.63;8.48;;;10.20;99.90;;;;;;5003901;28;20577;-78
2023/04/26 07:54:27;;;;;;;7.57;6.38;;;10.30;99.90;;;;;;5004105;28;20054;-77
2023/04/26 07:56:54;;;;;;;10.07;7.07;;;10.30;99.90;;;;;;5006225;28;20047;-80
2023/04/26 07:59:22;;;;;;;8.07;6.50;;;10.30;99.90;;;;;;5006879;28;20137;-78
2023/04/26 08:01:49;;;;;;;7.07;6.38;;;10.30;99.90;;;;;;5002153;28;20109;-78
2023/04/26 08:04:17;;;;;;;7.88;6.95;;;10.30;99.90;;;;;;5003518;28;20042;-77
2023/04/26 08:06:47;;;;;;;9.52;6.55;;;10.50;99.90;;;;;;5002206;28;20049;-78
2023/04/26 08:09:14;;;;;;;8.90;7.30;;;10.60;99.90;;;;;;5001619;28;20054;-78
2023/04/26 08:11:40;;;;;;;8.30;7.05;;;10.70;99.90;;;;;;5006202;28;20072;-77
2023/04/26 08:14:07;;;;;;;8.93;6.60;;;10.70;99.90;;;;;;5007598;28;20500;-78
2023/04/26 08:16:34;;;;;;;7.93;6.32;;;10.70;99.90;;;;;;5003334;28;20052;-78
2023/04/26 08:19:01;;;;;;;9.15;6.90;;;10.70;99.90;;;;;;5007672;28;20421;-78
2023/04/26 08:21:28;;;;;;;7.45;6.05;;;10.60;99.90;;;;;;4988069;28;20050;-79
2023/04/26 08:23:55;;;;;;;7.40;6.20;;;10.70;99.90;;;;;;5006133;28;20409;-78
2023/04/26 08:26:21;;;;;;;6.30;5.32;;;10.70;99.90;;;;;;5002767;28;20054;-77
2023/04/26 08:28:48;;;;;;;6.10;4.70;;;10.80;99.90;;;;;;5007654;28;20763;-78
2023/04/26 08:31:15;;;;;;;5.95;4.60;;;10.80;99.90;;;;;;5005780;28;20129;-79
2023/04/26 08:33:43;;;;;;;5.55;5.03;;;10.80;99.90;;;;;;4991008;28;20474;-77
2023/04/26 08:36:10;;;;;;;5.97;5.32;;;10.80;99.90;;;;;;5005499;28;20046;-84
2023/04/26 08:38:36;;;;;;;6.72;5.25;;;10.80;99.90;;;;;;5003643;28;20110;-77
2023/04/26 08:41:04;;;;;;;7.20;4.45;;;10.90;99.90;;;;;;5000952;28;20073;-79
2023/04/26 08:43:35;;;;;;;5.72;4.88;;;10.80;99.90;;;;;;4983682;28;20053;-78
2023/04/26 08:46:07;;;;;;;5.88;4.35;;;10.80;99.90;;;;;;4996517;28;20069;-79
2023/04/26 08:48:36;;;;;;;5.93;4.40;;;10.90;99.90;;;;;;4997359;28;20495;-78
2023/04/26 08:51:04;;;;;;;5.38;4.43;;;11.00;99.90;;;;;;4995038;28;20471;-76
2023/04/26 08:53:34;;;;;;;7.03;4.22;;;11.10;99.90;;;;;;5002795;28;20172;-77
2023/04/26 08:56:03;;;;;;;7.07;5.40;;;11.10;99.90;;;;;;4989382;28;20130;-76
2023/04/26 08:58:31;;;;;;;5.78;5.10;;;11.20;99.90;;;;;;4989464;28;20054;-79
2023/04/26 09:01:00;;;;;;;5.65;5.10;;;11.20;99.90;;;;;;4986283;28;20129;-80
2023/04/26 09:03:27;;;;;;;8.10;4.97;;;11.20;99.90;;;;;;4994422;28;20169;-77
2023/04/26 09:05:54;;;;;;;6.13;5.45;;;11.30;99.90;;;;;;4992706;28;20100;-79
2023/04/26 09:08:21;;;;;;;8.98;5.25;;;11.20;99.90;;;;;;4968805;28;20050;-77
2023/04/26 09:10:49;;;;;;;7.10;5.30;;;11.20;99.90;;;;;;4975485;28;20051;-76
2023/04/26 09:13:15;;;;;;;8.15;5.70;;;11.30;99.90;;;;;;4992713;28;20060;-78
2023/04/26 09:15:42;;;;;;;5.97;5.28;;;11.20;99.90;;;;;;4991408;28;20129;-80
2023/04/26 09:18:16;;;;;;;6.85;5.70;;;11.10;99.90;;;;;;4975906;28;20434;-79
2023/04/26 09:20:44;;;;;;;6.13;5.30;;;11.20;99.90;;;;;;4992541;28;20498;-78
2023/04/26 09:23:10;;;;;;;5.80;5.00;;;11.30;99.90;;;;;;4994128;28;20142;-79
2023/04/26 09:25:37;;;;;;;6.18;5.00;;;11.40;99.90;;;;;;4986618;28;20042;-77
2023/04/26 09:28:18;;;;;;;8.20;6.40;;;11.40;99.90;;;;;;4993350;28;20133;-77
2023/04/26 09:30:45;;;;;;;6.97;5.07;;;11.40;99.90;;;;;;4988305;28;20074;-78
2023/04/26 09:33:12;;;;;;;6.15;5.18;;;11.50;99.90;;;;;;4988493;28;20042;-78
2023/04/26 09:35:41;;;;;;;8.23;5.43;;;11.50;99.90;;;;;;4976625;28;20050;-77
2023/04/26 09:38:12;;;;;;;7.03;5.22;;;11.60;99.90;;;;;;4993362;28;20522;-79
2023/04/26 09:40:42;;;;;;;5.90;5.05;;;11.70;99.90;;;;;;4990076;28;20092;-78
2023/04/26 09:43:10;;;;;;;6.50;5.55;;;11.70;99.90;;;;;;4985945;28;20766;-77
2023/04/26 09:45:50;;;;;;;10.02;5.82;;;11.70;99.90;;;;;;4991348;28;20146;-78
2023/04/26 09:48:20;;;;;;;8.52;6.28;;;11.70;99.90;;;;;;4988910;28;20069;-80
2023/04/26 09:50:48;;;;;;;9.43;6.13;;;11.70;99.90;;;;;;4973660;28;20097;-78
2023/04/26 09:53:27;;;;;;;7.53;5.80;;;11.60;99.90;;;;;;4986613;28;20129;-78
2023/04/26 09:56:08;;;;;;;7.57;5.40;;;11.60;99.90;;;;;;4990326;28;20171;-78
2023/04/26 09:58:37;;;;;;;6.82;5.13;;;11.70;99.90;;;;;;4986458;28;20047;-77
2023/04/26 10:01:06;;;;;;;7.30;5.40;;;11.70;99.90;;;;;;4986982;28;20042;-77
2023/04/26 10:03:36;;;;;;;5.25;4.68;;;11.80;99.90;;;;;;4988970;28;20422;-78
2023/04/26 10:06:04;;;;;;;7.38;5.25;;;12.00;99.90;;;;;;4986084;28;20081;-78
2023/04/26 10:08:32;;;;;;;8.20;5.03;;;12.00;99.90;;;;;;4981809;28;20102;-78
2023/04/26 10:11:03;;;;;;;5.93;5.25;;;12.00;99.90;;;;;;4989942;28;20101;-79
2023/04/26 10:13:33;;;;;;;5.57;4.75;;;12.10;99.90;;;;;;4994133;28;20494;-78
2023/04/26 10:16:00;;;;;;;6.32;5.53;;;12.20;99.90;;;;;;4992376;28;20046;-77
2023/04/26 10:18:28;;;;;;;8.15;6.32;;;12.20;99.90;;;;;;4991075;28;20054;-79
2023/04/26 10:20:58;;;;;;;7.35;5.63;;;12.30;99.90;;;;;;4974538;28;20046;-79
2023/04/26 10:23:26;;;;;;;7.00;5.85;;;12.50;99.90;;;;;;4991156;28;20125;-78
2023/04/26 10:25:53;;;;;;;7.72;6.25;;;12.50;99.90;;;;;;4993281;28;20042;-77
2023/04/26 10:28:53;;;;;;;7.90;6.13;;;12.60;99.90;;;;;;4992507;28;20124;-77
2023/04/26 10:32:09;;;;;;;6.35;5.60;;;12.80;99.90;;;;;;4958922;28;20058;-79
2023/04/26 10:34:36;;;;;;;8.00;6.25;;;12.90;99.90;;;;;;4971807;28;20059;-78
2023/04/26 10:37:10;;;;;;;8.43;5.97;;;12.90;99.90;;;;;;4985537;28;20161;-77
2023/04/26 10:39:42;;;;;;;7.68;5.95;;;12.90;99.90;;;;;;4962815;28;20039;-77
2023/04/26 10:42:22;;;;;;;7.05;6.35;;;12.70;99.90;;;;;;4983975;28;20077;-77
2023/04/26 10:47:35;;;;;;;7.10;5.68;;;12.90;99.90;;;;;;4998952;28;20050;-75
2023/04/26 10:50:08;;;;;;;7.25;6.38;;;12.90;99.90;;;;;;5001635;28;20053;-75
2023/04/26 10:53:02;;;;;;;10.98;5.82;;;13.00;99.90;;;;;;5003668;28;20037;-76
2023/04/26 10:55:38;;;;;;;7.18;5.13;;;13.10;99.90;;;;;;5003372;28;20498;-75
2023/04/26 10:58:33;;;;;;;7.13;5.15;;;13.30;99.90;;;;;;4983720;28;20046;-75
2023/04/26 11:01:16;;;;;;;7.32;4.88;;;13.40;99.90;;;;;;4984321;28;20126;-76
2023/04/26 11:04:03;;;;;;;8.52;5.55;;;13.40;99.90;;;;;;4985455;28;20049;-75
2023/04/26 11:06:49;;;;;;;6.10;4.95;;;13.60;99.90;;;;;;4986745;28;20074;-75
2023/04/26 11:09:36;;;;;;;6.97;5.80;;;13.90;99.90;;;;;;4968790;28;20047;-75
2023/04/26 11:12:15;;;;;;;6.18;5.00;;;13.90;99.90;;;;;;4986122;28;20438;-78
2023/04/26 11:14:44;;;;;;;6.07;4.93;;;13.90;99.90;;;;;;4987134;28;20056;-76
2023/04/26 11:17:11;;;;;;;6.03;5.43;;;13.70;99.90;;;;;;4984914;28;20746;-75
2023/04/26 11:19:40;;;;;;;7.50;5.25;;;13.80;99.90;;;;;;4984375;28;20537;-76
2023/04/26 11:22:07;;;;;;;9.25;5.38;;;13.90;99.90;;;;;;4984393;28;20073;-75
2023/04/26 11:24:37;;;;;;;6.93;5.05;;;14.00;99.90;;;;;;4983746;28;20051;-75
2023/04/26 11:27:08;;;;;;;;;;;14.10;99.90;;;;;;4969438;28;20054;-75
2023/04/26 11:29:35;;;;;;;6.88;5.50;;;14.10;99.90;;;;;;4972828;28;19922;-75
2023/04/26 11:32:03;;;;;;;8.05;5.70;;;14.20;99.90;;;;;;4985118;28;20085;-75
2023/04/26 11:34:34;;;;;;;6.85;4.93;;;14.30;99.90;;;;;;4984102;28;20129;-75
2023/04/26 11:37:01;;;;;;;6.97;5.50;;;14.30;99.90;;;;;;4985371;28;20078;-74
2023/04/26 11:39:35;;;;;;;7.30;5.95;;;14.50;99.90;;;;;;4984464;28;20129;-74
2023/04/26 11:42:10;;;;;;;5.43;4.80;;;14.60;99.90;;;;;;4970523;28;20092;-75
2023/04/26 11:44:38;;;;;;;7.50;5.97;;;14.80;99.90;;;;;;4984746;28;20129;-74
2023/04/26 11:47:06;;;;;;;7.90;4.78;;;14.80;99.90;;;;;;4987732;28;20129;-74
2023/04/26 11:49:35;;;;;;;7.40;4.82;;;14.80;99.90;;;;;;4970725;28;20054;-75
2023/04/26 11:52:04;;;;;;;5.28;4.35;;;14.90;99.90;;;;;;4986928;28;20046;-74
2023/04/26 11:54:36;;;;;;;4.70;4.03;;;14.80;99.90;;;;;;4969855;28;20047;-74
2023/04/26 11:57:16;;;;;;;6.35;5.07;;;14.90;99.90;;;;;;4987101;28;20057;-77
2023/04/26 11:59:44;;;;;;;5.57;4.50;;;14.80;99.90;;;;;;4989063;28;20050;-75
2023/04/26 12:02:11;;;;;;;9.00;4.53;;;14.80;99.90;;;;;;4986065;28;20038;-75
2023/04/26 12:04:39;;;;;;;6.82;5.05;;;14.70;99.90;;;;;;4992030;28;20426;-75
2023/04/26 12:07:07;;;;;;;6.90;3.97;;;14.80;99.90;;;;;;4982043;28;20052;-74
2023/04/26 12:09:35;;;;;;;5.35;4.03;;;14.80;99.90;;;;;;4997751;28;20141;-75
2023/04/26 12:12:05;;;;;;;8.68;3.90;;;14.70;99.90;;;;;;4982363;28;20043;-74
2023/04/26 12:14:39;;;;;;;6.40;4.80;;;14.60;99.90;;;;;;4990735;28;20046;-75
2023/04/26 12:17:06;;;;;;;5.10;3.55;;;14.60;99.90;;;;;;4984534;28;20050;-74
2023/04/26 12:19:38;;;;;;;4.53;3.60;;;14.60;99.90;;;;;;4985626;28;20046;-75
2023/04/26 12:22:08;;;;;;;5.10;3.40;;;14.70;99.90;;;;;;4990846;28;20370;-75
2023/04/26 12:24:36;;;;;;;3.80;3.10;;;14.70;99.90;;;;;;4984155;28;20130;-75
2023/04/26 12:27:07;;;;;;;6.80;4.03;;;14.80;99.90;;;;;;4992404;28;20050;-74
2023/04/26 12:29:34;;;;;;;6.15;3.00;;;14.90;99.90;;;;;;4982151;28;20077;-75
2023/04/26 12:32:01;;;;;;;6.88;3.53;;;15.10;99.90;;;;;;4991985;28;20041;-75
2023/04/26 12:34:29;;;;;;;5.75;4.05;;;15.20;99.90;;;;;;4977186;28;20047;-75
2023/04/26 12:36:55;;;;;;;5.50;3.58;;;15.40;99.90;;;;;;4987730;28;20128;-75
2023/04/26 12:39:22;;;;;;;6.97;4.40;;;15.50;99.90;;;;;;4996618;28;20134;-75
2023/04/26 12:41:49;;;;;;;6.53;3.22;;;15.50;99.90;;;;;;4986713;28;20053;-75
2023/04/26 12:44:16;;;;;;;3.40;3.00;;;15.60;99.90;;;;;;4996315;28;20085;-74
2023/04/26 12:46:45;;;;;;;6.25;3.03;;;15.70;99.90;;;;;;4983067;28;21339;-73
2023/04/26 12:49:12;;;;;;;4.43;3.35;;;15.80;99.90;;;;;;4993197;28;20418;-73
2023/04/26 12:51:38;;;;;;;5.18;3.85;;;15.80;99.90;;;;;;4988984;28;20057;-73
2023/04/26 12:54:05;;;;;;;5.82;4.30;;;16.00;99.90;;;;;;4990694;28;20089;-73
2023/04/26 12:56:33;;;;;;;6.30;4.30;;;15.90;99.90;;;;;;4994983;28;20507;-74
2023/04/26 12:59:00;;;;;;;5.72;4.22;;;15.90;99.90;;;;;;4982066;28;20042;-73
2023/04/26 13:01:27;;;;;;;7.45;4.15;;;15.90;99.90;;;;;;4988559;28;20074;-73